createdAt,value
2023-10-29T00:00:10.245Z,95236.69
2023-10-29T00:02:38.617Z,95232.97
2023-10-29T00:05:07.963Z,95234.56
2023-10-29T00:07:36.136Z,95234.00
2023-10-29T00:10:31.780Z,95232.69
2023-10-29T00:13:02.450Z,95245.09
2023-10-29T00:15:31.669Z,95242.75
2023-10-29T00:17:59.985Z,95236.66
2023-10-29T00:20:28.335Z,95236.38
2023-10-29T00:22:56.563Z,95237.72
2023-10-29T00:25:24.660Z,95229.53
2023-10-29T00:27:54.194Z,95237.19
2023-10-29T00:30:22.275Z,95237.72
2023-10-29T00:32:55.221Z,95232.94
2023-10-29T00:35:23.989Z,95219.47
2023-10-29T00:37:52.189Z,95222.88
2023-10-29T00:40:20.522Z,95222.34
2023-10-29T00:42:48.623Z,95242.44
2023-10-29T00:45:18.555Z,95230.03
2023-10-29T00:47:46.794Z,95237.69
2023-10-29T00:50:15.254Z,95222.09
2023-10-29T00:52:43.636Z,95220.25
2023-10-29T00:55:12.064Z,95220.78
2023-10-29T00:57:40.337Z,95213.38
2023-10-29T01:00:11.633Z,95216.53
2023-10-29T01:02:41.493Z,95216.50
2023-10-29T01:05:10.267Z,95210.69
2023-10-29T01:07:38.686Z,95218.59
2023-10-29T01:10:08.137Z,95219.91
2023-10-29T01:12:36.365Z,95212.25
2023-10-29T01:15:04.824Z,95210.88
2023-10-29T01:17:33.331Z,95207.72
2023-10-29T01:20:04.740Z,95199.25
2023-10-29T01:22:34.178Z,95205.31
2023-10-29T01:25:03.837Z,95206.34
2023-10-29T01:27:31.923Z,95195.28
2023-10-29T01:30:00.105Z,95193.94
2023-10-29T01:32:28.598Z,95185.75
2023-10-29T01:34:56.726Z,95168.56
2023-10-29T01:37:26.811Z,95163.50
2023-10-29T01:39:56.677Z,95165.09
2023-10-29T01:42:24.871Z,95172.75
2023-10-29T01:44:52.999Z,95159.53
2023-10-29T01:47:21.119Z,95162.16
2023-10-29T01:49:49.211Z,95156.88
2023-10-29T01:52:17.892Z,95150.00
2023-10-29T01:54:48.936Z,95156.31
2023-10-29T01:57:17.131Z,95157.09
2023-10-29T01:59:45.432Z,95162.66
2023-10-29T02:02:13.626Z,95161.31
2023-10-29T02:04:41.816Z,95158.94
2023-10-29T02:07:09.967Z,95155.22
2023-10-29T02:09:40.591Z,95154.66
2023-10-29T02:12:10.331Z,95144.38
2023-10-29T02:14:41.201Z,95140.94
2023-10-29T02:17:09.476Z,95143.84
2023-10-29T02:19:37.593Z,95144.09
2023-10-29T02:22:07.483Z,95140.91
2023-10-29T02:24:35.566Z,95143.25
2023-10-29T02:27:03.776Z,95144.31
2023-10-29T02:29:32.026Z,95141.13
2023-10-29T02:32:00.137Z,95134.53
2023-10-29T02:34:28.429Z,95136.91
2023-10-29T02:36:56.518Z,95134.03
2023-10-29T02:39:25.978Z,95132.19
2023-10-29T02:41:54.151Z,95134.28
2023-10-29T02:44:47.579Z,95121.34
2023-10-29T02:47:16.038Z,95143.19
2023-10-29T02:49:44.405Z,95128.69
2023-10-29T02:52:12.660Z,95116.00
2023-10-29T02:54:42.217Z,95116.28
2023-10-29T02:57:10.322Z,95113.63
2023-10-29T02:59:38.545Z,95114.16
2023-10-29T03:02:06.835Z,95120.50
2023-10-29T03:04:35.752Z,95126.28
2023-10-29T03:07:04.401Z,95126.53
2023-10-29T03:09:32.479Z,95124.69
2023-10-29T03:12:01.988Z,95130.75
2023-10-29T03:14:30.144Z,95127.84
2023-10-29T03:16:58.226Z,95122.06
2023-10-29T03:19:26.296Z,95129.41
2023-10-29T03:21:54.694Z,95131.78
2023-10-29T03:24:22.945Z,95137.31
2023-10-29T03:26:51.028Z,95129.91
2023-10-29T03:29:20.471Z,95129.41
2023-10-29T03:31:50.082Z,95132.31
2023-10-29T03:34:18.255Z,95135.72
2023-10-29T03:36:46.297Z,95127.56
2023-10-29T03:39:14.363Z,95125.72
2023-10-29T03:41:43.053Z,95120.19
2023-10-29T03:44:11.116Z,95115.97
2023-10-29T03:46:40.548Z,95125.44
2023-10-29T03:49:09.154Z,95127.34
2023-10-29T03:51:44.362Z,95127.09
2023-10-29T03:54:12.506Z,95124.69
2023-10-29T03:56:40.705Z,95129.72
2023-10-29T03:59:09.528Z,95119.41
2023-10-29T04:01:37.694Z,95128.34
2023-10-29T04:04:09.296Z,95118.03
2023-10-29T04:06:37.453Z,95124.69
2023-10-29T04:09:06.571Z,95123.63
2023-10-29T04:11:35.048Z,95122.03
2023-10-29T04:14:03.256Z,95110.44
2023-10-29T04:16:31.438Z,95112.56
2023-10-29T04:18:59.573Z,95101.69
2023-10-29T04:21:29.213Z,95101.69
2023-10-29T04:23:57.400Z,95105.66
2023-10-29T04:26:25.571Z,95103.28
2023-10-29T04:28:53.807Z,95109.38
2023-10-29T04:31:21.895Z,95105.41
2023-10-29T04:33:50.453Z,95106.22
2023-10-29T04:36:22.469Z,95109.09
2023-10-29T04:38:52.665Z,95108.84
2023-10-29T04:41:20.951Z,95116.53
2023-10-29T04:43:49.304Z,95106.47
2023-10-29T04:46:17.397Z,95112.28
2023-10-29T04:48:45.711Z,95112.00
2023-10-29T04:51:13.826Z,95103.03
2023-10-29T04:56:36.324Z,95102.00
2023-10-29T04:59:04.494Z,95091.72
2023-10-29T05:01:32.646Z,95080.16
2023-10-29T05:04:00.880Z,95082.25
2023-10-29T05:06:54.048Z,95074.31
2023-10-29T05:09:22.083Z,95070.91
2023-10-29T05:11:51.579Z,95078.84
2023-10-29T05:14:19.735Z,95073.31
2023-10-29T05:16:47.998Z,95077.81
2023-10-29T05:19:19.703Z,95069.09
2023-10-29T05:21:47.896Z,95066.72
2023-10-29T05:24:15.970Z,95066.47
2023-10-29T05:26:44.203Z,95071.53
2023-10-29T05:29:13.619Z,95084.47
2023-10-29T05:31:42.268Z,95086.59
2023-10-29T05:34:10.610Z,95077.34
2023-10-29T05:36:38.682Z,95078.16
2023-10-29T05:39:08.423Z,95080.56
2023-10-29T05:41:36.506Z,95083.75
2023-10-29T05:44:06.969Z,95084.50
2023-10-29T05:46:36.510Z,95088.78
2023-10-29T05:49:05.325Z,95083.47
2023-10-29T05:51:33.435Z,95071.84
2023-10-29T05:54:02.175Z,95077.94
2023-10-29T05:56:30.372Z,95075.56
2023-10-29T05:58:58.487Z,95082.94
2023-10-29T06:01:28.298Z,95090.06
2023-10-29T06:03:58.046Z,95099.06
2023-10-29T06:06:26.441Z,95097.97
2023-10-29T06:08:54.674Z,95095.88
2023-10-29T06:11:22.780Z,95108.03
2023-10-29T06:13:54.201Z,95109.66
2023-10-29T06:16:22.311Z,95101.72
2023-10-29T06:18:50.407Z,95110.97
2023-10-29T06:21:21.972Z,95113.34
2023-10-29T06:23:50.226Z,95112.28
2023-10-29T06:26:18.445Z,95121.78
2023-10-29T06:28:46.568Z,95122.84
2023-10-29T06:31:15.038Z,95129.47
2023-10-29T06:33:43.338Z,95135.56
2023-10-29T06:36:11.782Z,95144.25
2023-10-29T06:38:41.578Z,95146.09
2023-10-29T06:41:09.682Z,95149.78
2023-10-29T06:43:37.745Z,95149.53
2023-10-29T06:46:05.931Z,95154.56
2023-10-29T06:48:34.060Z,95169.09
2023-10-29T06:51:02.200Z,95163.56
2023-10-29T06:53:32.165Z,95172.00
2023-10-29T06:56:05.296Z,95177.59
2023-10-29T06:58:33.740Z,95181.81
2023-10-29T07:03:58.351Z,95182.31
2023-10-29T07:06:26.488Z,95190.00
2023-10-29T07:08:54.609Z,95191.59
2023-10-29T07:11:24.830Z,95193.44
2023-10-29T07:13:54.225Z,95192.69
2023-10-29T07:16:22.431Z,95193.22
2023-10-29T07:18:50.638Z,95195.88
2023-10-29T07:21:18.798Z,95204.06
2023-10-29T07:23:47.004Z,95202.19
2023-10-29T07:26:15.708Z,95198.78
2023-10-29T07:28:45.102Z,95207.53
2023-10-29T07:31:15.241Z,95198.81
2023-10-29T07:33:44.017Z,95204.88
2023-10-29T07:36:12.141Z,95212.03
2023-10-29T07:38:40.242Z,95225.78
2023-10-29T07:41:08.361Z,95236.09
2023-10-29T07:43:36.490Z,95229.75
2023-10-29T07:46:06.901Z,95229.47
2023-10-29T07:48:35.055Z,95234.81
2023-10-29T07:51:03.256Z,95233.47
2023-10-29T07:53:31.877Z,95230.31
2023-10-29T07:56:10.096Z,95227.13
2023-10-29T07:58:38.751Z,95229.25
2023-10-29T08:01:14.210Z,95227.69
2023-10-29T08:03:42.948Z,95235.09
2023-10-29T08:06:12.119Z,95231.97
2023-10-29T08:08:41.216Z,95235.16
2023-10-29T08:11:18.300Z,95235.91
2023-10-29T08:13:46.376Z,95235.13
2023-10-29T08:16:15.933Z,95232.75
2023-10-29T08:18:44.170Z,95236.72
2023-10-29T08:21:12.502Z,95252.34
2023-10-29T08:23:40.701Z,95261.34
2023-10-29T08:26:08.868Z,95271.13
2023-10-29T08:28:38.261Z,95273.75
2023-10-29T08:31:06.415Z,95268.22
2023-10-29T08:33:35.903Z,95269.53
2023-10-29T08:36:04.683Z,95265.84
2023-10-29T08:38:32.778Z,95273.53
2023-10-29T08:41:00.922Z,95272.22
2023-10-29T08:43:31.621Z,95257.09
2023-10-29T08:45:59.994Z,95250.75
2023-10-29T08:48:28.204Z,95243.09
2023-10-29T08:50:57.725Z,95239.91
2023-10-29T08:53:25.860Z,95237.25
2023-10-29T08:55:54.583Z,95228.00
2023-10-29T08:58:22.872Z,95211.84
2023-10-29T09:00:52.392Z,95222.69
2023-10-29T09:03:20.620Z,95218.19
2023-10-29T09:05:49.283Z,95207.59
2023-10-29T09:08:18.825Z,95224.28
2023-10-29T09:10:47.041Z,95218.69
2023-10-29T09:13:20.082Z,95210.22
2023-10-29T09:15:50.106Z,95214.44
2023-10-29T09:18:18.552Z,95217.63
2023-10-29T09:20:47.690Z,95218.41
2023-10-29T09:23:16.019Z,95201.69
2023-10-29T09:25:46.933Z,95206.97
2023-10-29T09:28:16.121Z,95200.59
2023-10-29T09:30:45.050Z,95192.13
2023-10-29T09:33:14.390Z,95198.47
2023-10-29T09:35:42.780Z,95201.63
2023-10-29T09:38:10.922Z,95191.84
2023-10-29T09:40:39.081Z,95197.41
2023-10-29T09:43:09.811Z,95196.88
2023-10-29T09:45:46.501Z,95196.06
2023-10-29T09:48:15.504Z,95200.59
2023-10-29T09:50:45.269Z,95197.38
2023-10-29T09:53:14.628Z,95187.59
2023-10-29T09:55:42.817Z,95181.78
2023-10-29T09:58:12.319Z,95173.00
2023-10-29T10:00:41.412Z,95168.53
2023-10-29T10:03:09.703Z,95161.09
2023-10-29T10:05:40.698Z,95165.56
2023-10-29T10:08:09.038Z,95164.25
2023-10-29T10:10:41.642Z,95174.31
2023-10-29T10:13:17.059Z,95174.56
2023-10-29T10:15:45.795Z,95173.75
2023-10-29T10:18:17.393Z,95167.97
2023-10-29T10:20:45.621Z,95165.03
2023-10-29T10:23:14.672Z,95169.00
2023-10-29T10:25:42.817Z,95166.09
2023-10-29T10:28:10.920Z,95169.00
2023-10-29T10:30:41.047Z,95163.69
2023-10-29T10:33:16.183Z,95169.50
2023-10-29T10:35:46.286Z,95168.72
2023-10-29T10:38:17.158Z,95167.16
2023-10-29T10:40:45.722Z,95163.97
2023-10-29T10:43:21.184Z,95159.72
2023-10-29T10:45:52.953Z,95151.22
2023-10-29T10:48:21.070Z,95151.22
2023-10-29T10:50:49.806Z,95155.94
2023-10-29T10:53:18.852Z,95159.63
2023-10-29T10:56:02.396Z,95146.13
2023-10-29T10:58:33.341Z,95139.78
2023-10-29T11:01:07.453Z,95148.75
2023-10-29T11:03:36.391Z,95137.31
2023-10-29T11:06:12.036Z,95129.31
2023-10-29T11:08:42.088Z,95147.59
2023-10-29T11:11:12.996Z,95131.94
2023-10-29T11:13:41.357Z,95124.50
2023-10-29T11:16:23.416Z,95116.75
2023-10-29T11:18:51.655Z,95118.06
2023-10-29T11:21:33.558Z,95113.25
2023-10-29T11:24:19.956Z,95114.78
2023-10-29T11:26:48.286Z,95102.03
2023-10-29T11:29:44.667Z,95094.25
2023-10-29T11:32:36.596Z,95091.28
2023-10-29T11:35:22.660Z,95089.38
2023-10-29T11:37:53.197Z,95083.78
2023-10-29T11:40:33.656Z,95082.38
2023-10-29T11:43:26.908Z,95081.25
2023-10-29T11:46:03.574Z,95085.44
2023-10-29T11:48:34.538Z,95082.72
2023-10-29T11:51:22.135Z,95081.41
2023-10-29T11:53:52.468Z,95076.03
2023-10-29T11:56:21.807Z,95072.50
2023-10-29T11:59:07.981Z,95079.19
2023-10-29T12:01:38.801Z,95073.53
2023-10-29T12:04:10.410Z,95072.25
2023-10-29T12:06:43.169Z,95062.00
2023-10-29T12:09:22.597Z,95068.72
2023-10-29T12:11:53.507Z,95072.25
2023-10-29T12:14:44.139Z,95072.00
2023-10-29T12:17:12.850Z,95081.94
2023-10-29T12:19:44.947Z,95090.56
2023-10-29T12:22:18.944Z,95095.41
2023-10-29T12:24:49.164Z,95089.22
2023-10-29T12:27:19.931Z,95105.66
2023-10-29T12:29:48.132Z,95100.53
2023-10-29T12:32:20.867Z,95095.63
2023-10-29T12:34:55.484Z,95095.22
2023-10-29T12:37:25.757Z,95081.59
2023-10-29T12:39:57.153Z,95084.84
2023-10-29T12:42:49.891Z,95082.78
2023-10-29T12:45:25.808Z,95071.16
2023-10-29T12:48:13.243Z,95067.06
2023-10-29T12:50:51.170Z,95063.97
2023-10-29T12:53:24.455Z,95061.31
2023-10-29T12:55:52.713Z,95066.94
2023-10-29T12:58:21.424Z,95058.03
2023-10-29T13:00:49.679Z,95056.25
2023-10-29T13:03:17.881Z,95059.34
2023-10-29T13:05:46.431Z,95057.56
2023-10-29T13:08:17.218Z,95061.63
2023-10-29T13:10:47.359Z,95059.16
2023-10-29T13:13:16.662Z,95061.47
2023-10-29T13:15:44.787Z,95063.34
2023-10-29T13:18:13.165Z,95057.81
2023-10-29T13:20:41.431Z,95057.41
2023-10-29T13:23:09.527Z,95051.09
2023-10-29T13:25:39.066Z,95051.38
2023-10-29T13:28:07.189Z,95057.28
2023-10-29T13:30:36.923Z,95058.16
2023-10-29T13:33:05.263Z,95057.38
2023-10-29T13:35:33.454Z,95057.66
2023-10-29T13:38:01.652Z,95064.09
2023-10-29T13:40:29.763Z,95059.06
2023-10-29T13:43:01.474Z,95068.19
2023-10-29T13:45:29.694Z,95067.44
2023-10-29T13:47:57.932Z,95061.88
2023-10-29T13:50:26.225Z,95057.16
2023-10-29T13:52:54.297Z,95054.19
2023-10-29T13:55:24.452Z,95061.41
2023-10-29T13:57:53.035Z,95066.44
2023-10-29T14:00:26.787Z,95059.03
2023-10-29T14:02:56.730Z,95065.91
2023-10-29T14:05:26.735Z,95053.19
2023-10-29T14:07:55.471Z,95052.13
2023-10-29T14:10:24.045Z,95044.16
2023-10-29T14:12:52.204Z,95032.75
2023-10-29T14:15:22.057Z,95019.22
2023-10-29T14:17:50.454Z,95008.38
2023-10-29T14:20:18.746Z,95008.09
2023-10-29T14:22:47.834Z,95010.75
2023-10-29T14:25:19.004Z,95004.44
2023-10-29T14:27:47.188Z,95000.09
2023-10-29T14:30:15.651Z,95001.38
2023-10-29T14:32:45.494Z,95008.66
2023-10-29T14:35:13.976Z,95007.56
2023-10-29T14:37:42.144Z,95016.34
2023-10-29T14:40:12.962Z,95003.63
2023-10-29T14:42:45.025Z,95007.19
2023-10-29T14:45:13.853Z,94998.41
2023-10-29T14:47:42.343Z,94996.03
2023-10-29T14:50:13.523Z,94983.28
2023-10-29T14:52:42.491Z,94984.19
2023-10-29T14:55:11.352Z,94976.50
2023-10-29T14:57:39.748Z,94973.84
2023-10-29T15:00:11.641Z,94975.00
2023-10-29T15:02:40.019Z,94981.91
2023-10-29T15:05:09.700Z,94996.28
2023-10-29T15:07:42.408Z,95002.16
2023-10-29T15:10:13.605Z,95006.44
2023-10-29T15:12:43.796Z,95015.56
2023-10-29T15:15:26.490Z,95013.78
2023-10-29T15:17:58.151Z,95016.94
2023-10-29T15:20:28.062Z,95013.47
2023-10-29T15:22:59.451Z,95006.59
2023-10-29T15:25:30.019Z,95007.47
2023-10-29T15:27:58.797Z,95017.78
2023-10-29T15:30:30.333Z,95010.81
2023-10-29T15:33:01.186Z,95016.94
2023-10-29T15:35:36.602Z,95019.13
2023-10-29T15:38:06.071Z,95018.88
2023-10-29T15:40:35.299Z,95014.38
2023-10-29T15:43:03.812Z,95005.09
2023-10-29T15:45:32.056Z,95001.16
2023-10-29T15:48:00.500Z,95005.16
2023-10-29T15:50:28.925Z,95007.13
2023-10-29T15:52:56.982Z,95021.19
2023-10-29T15:55:26.526Z,95026.53
2023-10-29T15:57:54.697Z,95038.53
2023-10-29T16:00:22.971Z,95041.47
2023-10-29T16:02:51.234Z,95046.88
2023-10-29T16:05:20.551Z,95047.44
2023-10-29T16:07:48.833Z,95063.69
2023-10-29T16:10:17.125Z,95072.53
2023-10-29T16:12:47.157Z,95089.34
2023-10-29T16:15:15.392Z,95082.22
2023-10-29T16:17:43.748Z,95085.13
2023-10-29T16:20:13.000Z,95084.91
2023-10-29T16:22:41.132Z,95085.47
2023-10-29T16:25:10.848Z,95079.16
2023-10-29T16:27:39.936Z,95077.84
2023-10-29T16:30:10.743Z,95080.50
2023-10-29T16:32:39.173Z,95094.63
2023-10-29T16:35:08.482Z,95093.88
2023-10-29T16:37:36.963Z,95103.97
2023-10-29T16:40:06.276Z,95106.91
2023-10-29T16:42:36.539Z,95122.38
2023-10-29T16:45:06.646Z,95134.06
2023-10-29T16:47:36.241Z,95145.25
2023-10-29T16:50:05.088Z,95166.53
2023-10-29T16:52:34.743Z,95193.94
2023-10-29T16:55:27.406Z,95227.44
2023-10-29T16:57:55.820Z,95232.53
2023-10-29T17:00:25.365Z,95230.53
2023-10-29T17:02:55.012Z,95262.22
2023-10-29T17:05:23.618Z,95254.28
2023-10-29T17:07:51.974Z,95264.94
2023-10-29T17:10:21.457Z,95274.34
2023-10-29T17:12:49.549Z,95282.31
2023-10-29T17:15:17.833Z,95282.34
2023-10-29T17:17:46.075Z,95288.78
2023-10-29T17:20:15.627Z,95298.63
2023-10-29T17:22:43.797Z,95293.84
2023-10-29T17:25:11.981Z,95323.34
2023-10-29T17:27:40.054Z,95326.84
2023-10-29T17:30:10.111Z,95352.34
2023-10-29T17:32:38.252Z,95360.56
2023-10-29T17:35:07.410Z,95343.63
2023-10-29T17:37:37.384Z,95333.03
2023-10-29T17:40:07.857Z,95332.00
2023-10-29T17:42:36.138Z,95328.78
2023-10-29T17:45:04.548Z,95351.09
2023-10-29T17:47:32.764Z,95350.06
2023-10-29T17:50:00.814Z,95356.44
2023-10-29T17:52:29.235Z,95343.69
2023-10-29T17:54:59.243Z,95360.66
2023-10-29T17:57:27.630Z,95366.22
2023-10-29T17:59:55.872Z,95366.47
2023-10-29T18:02:23.952Z,95376.03
2023-10-29T18:04:52.197Z,95379.72
2023-10-29T18:07:20.401Z,95376.53
2023-10-29T18:09:48.656Z,95385.00
2023-10-29T18:12:18.421Z,95373.09
2023-10-29T18:14:47.048Z,95391.13
2023-10-29T18:17:15.154Z,95387.16
2023-10-29T18:19:43.408Z,95393.75
2023-10-29T18:22:11.886Z,95392.69
2023-10-29T18:24:40.020Z,95406.22
2023-10-29T18:27:08.189Z,95417.34
2023-10-29T18:29:37.698Z,95410.72
2023-10-29T18:32:06.973Z,95402.50
2023-10-29T18:34:35.599Z,95397.75
2023-10-29T18:37:04.134Z,95389.50
2023-10-29T18:39:32.385Z,95392.97
2023-10-29T18:42:03.402Z,95387.66
2023-10-29T18:44:32.608Z,95396.13
2023-10-29T18:47:02.891Z,95415.19
2023-10-29T18:49:31.401Z,95429.75
2023-10-29T18:52:00.045Z,95412.28
2023-10-29T18:54:28.322Z,95411.75
2023-10-29T18:56:56.934Z,95430.56
2023-10-29T18:59:25.400Z,95432.66
2023-10-29T19:01:52.780Z,95440.09
2023-10-29T19:04:22.995Z,95423.41
2023-10-29T19:06:51.962Z,95440.59
2023-10-29T19:09:21.139Z,95467.09
2023-10-29T19:11:51.016Z,95455.97
2023-10-29T19:14:19.782Z,95444.84
2023-10-29T19:16:47.931Z,95418.88
2023-10-29T19:19:19.515Z,95430.53
2023-10-29T19:21:49.016Z,95436.09
2023-10-29T19:24:19.429Z,95421.50
2023-10-29T19:26:48.207Z,95421.00
2023-10-29T19:29:16.394Z,95430.78
2023-10-29T19:31:44.516Z,95445.09
2023-10-29T19:34:12.678Z,95453.78
2023-10-29T19:36:41.270Z,95458.06
2023-10-29T19:39:14.066Z,95450.91
2023-10-29T19:41:42.195Z,95446.13
2023-10-29T19:44:10.530Z,95447.19
2023-10-29T19:46:39.044Z,95439.53
2023-10-29T19:49:09.348Z,95434.19
2023-10-29T19:51:37.462Z,95442.41
2023-10-29T19:54:06.174Z,95435.25
2023-10-29T19:56:35.704Z,95437.09
2023-10-29T19:59:03.878Z,95444.78
2023-10-29T20:01:32.036Z,95446.66
2023-10-29T20:04:00.436Z,95452.72
2023-10-29T20:06:29.198Z,95449.00
2023-10-29T20:08:57.517Z,95447.94
2023-10-29T20:11:25.738Z,95451.66
2023-10-29T20:13:56.610Z,95456.38
2023-10-29T20:16:24.966Z,95449.78
2023-10-29T20:18:53.047Z,95444.78
2023-10-29T20:21:22.277Z,95451.66
2023-10-29T20:23:51.013Z,95454.56
2023-10-29T20:26:20.766Z,95472.00
2023-10-29T20:28:50.752Z,95474.41
2023-10-29T20:31:21.638Z,95480.44
2023-10-29T20:33:51.948Z,95487.88
2023-10-29T20:36:20.141Z,95486.56
2023-10-29T20:38:48.330Z,95479.41
2023-10-29T20:41:17.042Z,95492.91
2023-10-29T20:43:45.528Z,95485.47
2023-10-29T20:46:14.277Z,95496.88
2023-10-29T20:48:45.130Z,95496.06
2023-10-29T20:51:17.082Z,95505.34
2023-10-29T20:53:46.089Z,95497.38
2023-10-29T20:56:15.509Z,95496.34
2023-10-29T20:58:43.697Z,95499.03
2023-10-29T21:01:11.790Z,95502.97
2023-10-29T21:03:40.009Z,95500.06
2023-10-29T21:06:09.612Z,95513.03
2023-10-29T21:08:38.411Z,95508.78
2023-10-29T21:11:10.154Z,95520.41
2023-10-29T21:13:38.298Z,95521.97
2023-10-29T21:16:08.693Z,95527.06
2023-10-29T21:18:37.780Z,95534.16
2023-10-29T21:21:07.485Z,95529.13
2023-10-29T21:23:37.501Z,95531.28
2023-10-29T21:26:05.809Z,95536.28
2023-10-29T21:28:34.146Z,95544.50
2023-10-29T21:31:02.521Z,95538.97
2023-10-29T21:33:30.687Z,95530.25
2023-10-29T21:35:58.857Z,95528.66
2023-10-29T21:38:26.925Z,95531.56
2023-10-29T21:40:57.097Z,95532.63
2023-10-29T21:43:25.279Z,95535.28
2023-10-29T21:45:53.919Z,95537.16
2023-10-29T21:48:22.032Z,95539.81
2023-10-29T21:50:57.032Z,95540.31
2023-10-29T21:53:26.225Z,95554.59
2023-10-29T21:55:56.236Z,95550.34
2023-10-29T21:58:25.102Z,95555.88
2023-10-29T22:00:54.277Z,95539.75
2023-10-29T22:03:22.691Z,95564.38
2023-10-29T22:05:58.553Z,95532.06
2023-10-29T22:08:27.124Z,95552.97
2023-10-29T22:11:02.199Z,95552.47
2023-10-29T22:13:38.140Z,95544.03
2023-10-29T22:16:09.130Z,95539.50
2023-10-29T22:18:37.714Z,95526.81
2023-10-29T22:21:09.009Z,95525.50
2023-10-29T22:23:37.990Z,95529.47
2023-10-29T22:26:09.262Z,95522.31
2023-10-29T22:28:38.077Z,95516.22
2023-10-29T22:31:06.591Z,95501.13
2023-10-29T22:33:34.760Z,95498.22
2023-10-29T22:36:05.346Z,95507.22
2023-10-29T22:38:33.718Z,95512.78
2023-10-29T22:41:03.846Z,95517.00
2023-10-29T22:43:34.194Z,95514.91
2023-10-29T22:46:03.391Z,95516.22
2023-10-29T22:48:31.724Z,95516.22
2023-10-29T22:51:03.724Z,95511.69
2023-10-29T22:53:31.903Z,95521.78
2023-10-29T22:56:01.345Z,95540.00
2023-10-29T22:58:30.206Z,95537.09
2023-10-29T23:00:59.984Z,95541.63
2023-10-29T23:03:29.064Z,95538.41
2023-10-29T23:05:57.531Z,95542.63
2023-10-29T23:08:25.606Z,95545.59
2023-10-29T23:10:53.775Z,95537.09
2023-10-29T23:13:21.812Z,95539.47
2023-10-29T23:15:53.378Z,95535.75
2023-10-29T23:18:23.116Z,95543.72
2023-10-29T23:20:51.478Z,95548.75
2023-10-29T23:23:19.574Z,95558.00
2023-10-29T23:25:48.172Z,95561.97
2023-10-29T23:30:47.340Z,95572.56
2023-10-29T23:33:15.558Z,95570.75
2023-10-29T23:35:45.072Z,95573.91
2023-10-29T23:38:13.181Z,95569.94
2023-10-29T23:40:41.478Z,95578.13
2023-10-29T23:43:09.548Z,95578.38
2023-10-29T23:45:37.654Z,95585.00
2023-10-29T23:48:07.311Z,95572.78
2023-10-29T23:50:35.397Z,95603.22
2023-10-29T23:53:04.925Z,95569.34
2023-10-29T23:55:33.105Z,95599.03
2023-10-29T23:58:01.178Z,95579.47
